Gilford, Michigan
Current Conditions -  °F | °C
As of 3:14 AM on Tuesday 21 Oct 2014 (Local Time) from KCFS Reporting Station
Overcast Overcast  
Wind Chill: 45°   Ceiling: 1500
Heat Index: 48°   Visibility: 10mi
Dew Point: 44°   Wind: 8mph
Humidity: 85%   Direction: 340°NNW
Pressure: 29.89"   Gusts: 16mph
Location:  43.49°N, 83.62°W
Report Text: KCFS 210714Z AUTO 34007G14KT 10SM OVC015 09/07 A2989 RMK AO2 T00900066
Loading
Personal Weather Stations






























Interactive Weather Map
Tropical Storm Tracking
New forecast layout! Learn more

10-Day Weather Forecast

Advertisements
Track Severe Weather on mobile